createdAt,value
2023-01-23T00:02:22.695Z,53.73
2023-01-23T00:04:50.359Z,53.52
2023-01-23T00:07:16.954Z,53.49
2023-01-23T00:09:43.624Z,53.84
2023-01-23T00:12:10.109Z,53.83
2023-01-23T00:14:36.735Z,53.68
2023-01-23T00:17:03.262Z,53.83
2023-01-23T00:19:30.718Z,53.58
2023-01-23T00:21:57.240Z,53.70
2023-01-23T00:24:23.639Z,53.86
2023-01-23T00:26:50.189Z,53.80
2023-01-23T00:29:17.036Z,53.79
2023-01-23T00:31:43.962Z,53.71
2023-01-23T00:34:10.577Z,53.80
2023-01-23T00:36:36.978Z,53.72
2023-01-23T00:39:03.316Z,53.93
2023-01-23T00:41:30.143Z,53.96
2023-01-23T00:43:57.091Z,53.88
2023-01-23T00:46:23.999Z,54.01
2023-01-23T00:48:50.492Z,53.97
2023-01-23T00:51:16.947Z,53.67
2023-01-23T00:53:43.758Z,53.98
2023-01-23T00:56:10.140Z,53.94
2023-01-23T00:58:36.536Z,53.78
2023-01-23T01:01:03.299Z,53.86
2023-01-23T01:03:30.345Z,53.72
2023-01-23T01:05:57.162Z,53.89
2023-01-23T01:08:23.552Z,54.00
2023-01-23T01:10:50.501Z,53.98
2023-01-23T01:13:16.995Z,54.03
2023-01-23T01:15:43.883Z,53.87
2023-01-23T01:18:10.688Z,54.02
2023-01-23T01:20:37.141Z,53.76
2023-01-23T01:23:03.942Z,54.02
2023-01-23T01:25:30.517Z,54.06
2023-01-23T01:27:57.359Z,53.91
2023-01-23T01:30:23.794Z,54.10
2023-01-23T01:32:50.445Z,54.01
2023-01-23T01:35:16.780Z,53.99
2023-01-23T01:37:43.709Z,53.88
2023-01-23T01:40:10.085Z,53.91
2023-01-23T01:42:36.521Z,53.98
2023-01-23T01:45:02.910Z,53.90
2023-01-23T01:47:29.718Z,54.13
2023-01-23T01:49:56.528Z,54.03
2023-01-23T01:52:23.113Z,53.88
2023-01-23T01:54:49.870Z,53.90
2023-01-23T01:57:16.287Z,54.14
2023-01-23T01:59:42.972Z,54.12
2023-01-23T02:02:09.759Z,54.18
2023-01-23T02:04:37.132Z,53.97
2023-01-23T02:07:03.549Z,53.95
2023-01-23T02:09:30.882Z,54.17
2023-01-23T02:11:57.387Z,53.97
2023-01-23T02:14:24.263Z,54.25
2023-01-23T02:16:50.766Z,53.98
2023-01-23T02:19:17.542Z,54.26
2023-01-23T02:21:44.137Z,54.07
2023-01-23T02:24:10.559Z,54.13
2023-01-23T02:26:37.059Z,54.27
2023-01-23T02:29:03.473Z,54.14
2023-01-23T02:31:29.974Z,54.22
2023-01-23T02:33:56.794Z,54.09
2023-01-23T02:36:23.429Z,54.27
2023-01-23T02:38:49.872Z,54.27
2023-01-23T02:41:16.280Z,54.28
2023-01-23T02:43:42.893Z,54.10
2023-01-23T02:46:09.325Z,54.22
2023-01-23T02:48:35.818Z,54.22
2023-01-23T02:51:02.265Z,54.18
2023-01-23T02:53:28.953Z,54.38
2023-01-23T02:55:55.725Z,54.21
2023-01-23T02:58:22.186Z,54.38
2023-01-23T03:00:48.815Z,54.36
2023-01-23T03:03:15.415Z,54.30
2023-01-23T03:05:41.926Z,54.44
2023-01-23T03:08:08.332Z,54.10
2023-01-23T03:10:34.878Z,54.33
2023-01-23T03:13:01.861Z,54.25
2023-01-23T03:15:29.265Z,54.21
2023-01-23T03:17:55.723Z,54.30
2023-01-23T03:20:22.619Z,54.39
2023-01-23T03:22:49.635Z,54.28
2023-01-23T03:25:16.351Z,54.41
2023-01-23T03:27:43.108Z,54.47
2023-01-23T03:30:10.082Z,54.26
2023-01-23T03:32:37.049Z,54.36
2023-01-23T03:35:03.623Z,54.26
2023-01-23T03:37:30.247Z,54.27
2023-01-23T03:39:57.083Z,54.28
2023-01-23T03:42:23.475Z,54.43
2023-01-23T03:44:49.864Z,54.52
2023-01-23T03:47:16.287Z,54.51
2023-01-23T03:49:42.978Z,54.39
2023-01-23T03:52:09.474Z,54.32
2023-01-23T03:54:35.935Z,54.45
2023-01-23T03:57:02.386Z,54.58
2023-01-23T03:59:29.122Z,54.61
2023-01-23T04:01:55.595Z,54.44
2023-01-23T04:04:22.179Z,54.67
2023-01-23T04:06:49.035Z,54.42
2023-01-23T04:09:15.470Z,54.51
2023-01-23T04:11:41.951Z,54.37
2023-01-23T04:14:08.483Z,54.42
2023-01-23T04:16:35.597Z,54.59
2023-01-23T04:19:02.287Z,54.32
2023-01-23T04:21:28.713Z,54.70
2023-01-23T04:23:55.246Z,54.64
2023-01-23T04:26:21.650Z,54.55
2023-01-23T04:28:48.511Z,54.42
2023-01-23T04:31:15.077Z,54.65
2023-01-23T04:33:41.889Z,54.52
2023-01-23T04:36:08.701Z,54.55
2023-01-23T04:38:35.172Z,54.54
2023-01-23T04:41:01.732Z,54.47
2023-01-23T04:43:28.166Z,54.56
2023-01-23T04:45:54.562Z,54.50
2023-01-23T04:48:21.599Z,54.47
2023-01-23T04:50:49.049Z,54.58
2023-01-23T04:53:15.472Z,54.47
2023-01-23T04:55:42.005Z,54.47
2023-01-23T04:58:08.641Z,54.75
2023-01-23T05:00:35.145Z,54.54
2023-01-23T05:03:01.672Z,54.58
2023-01-23T05:05:28.420Z,54.57
2023-01-23T05:07:55.291Z,54.43
2023-01-23T05:10:22.152Z,54.69
2023-01-23T05:12:49.192Z,54.52
2023-01-23T05:15:15.569Z,54.69
2023-01-23T05:17:42.150Z,54.79
2023-01-23T05:20:08.727Z,54.64
2023-01-23T05:22:35.685Z,54.77
2023-01-23T05:25:02.227Z,54.56
2023-01-23T05:27:28.739Z,54.81
2023-01-23T05:29:55.486Z,54.70
2023-01-23T05:32:21.918Z,54.85
2023-01-23T05:34:48.896Z,54.65
2023-01-23T05:37:15.273Z,54.78
2023-01-23T05:39:41.807Z,54.79
2023-01-23T05:42:08.473Z,54.66
2023-01-23T05:44:35.343Z,54.52
2023-01-23T05:47:01.983Z,54.75
2023-01-23T05:49:28.599Z,54.70
2023-01-23T05:51:55.491Z,54.59
2023-01-23T05:54:22.216Z,54.54
2023-01-23T05:56:48.901Z,54.64
2023-01-23T05:59:15.457Z,54.77
2023-01-23T06:01:42.788Z,54.64
2023-01-23T06:04:09.739Z,54.64
2023-01-23T06:06:36.361Z,54.73
2023-01-23T06:09:02.783Z,54.73
2023-01-23T06:11:29.469Z,54.52
2023-01-23T06:13:55.934Z,54.72
2023-01-23T06:16:22.426Z,54.79
2023-01-23T06:18:48.853Z,54.85
2023-01-23T06:21:15.344Z,54.74
2023-01-23T06:23:41.918Z,54.55
2023-01-23T06:26:08.621Z,54.71
2023-01-23T06:28:35.446Z,54.74
2023-01-23T06:31:02.423Z,54.74
2023-01-23T06:33:28.985Z,54.63
2023-01-23T06:35:55.473Z,54.74
2023-01-23T06:38:21.919Z,54.65
2023-01-23T06:40:48.305Z,54.69
2023-01-23T06:43:14.892Z,54.70
2023-01-23T06:45:41.662Z,54.85
2023-01-23T06:48:08.790Z,54.84
2023-01-23T06:50:35.258Z,54.80
2023-01-23T06:53:01.675Z,54.64
2023-01-23T06:55:28.159Z,54.78
2023-01-23T06:57:54.874Z,54.72
2023-01-23T07:00:21.684Z,54.86
2023-01-23T07:02:48.524Z,54.84
2023-01-23T07:05:15.348Z,54.74
2023-01-23T07:07:41.801Z,54.67
2023-01-23T07:10:08.357Z,54.63
2023-01-23T07:12:35.010Z,54.65
2023-01-23T07:15:01.604Z,54.70
2023-01-23T07:17:28.116Z,54.79
2023-01-23T07:19:55.166Z,54.69
2023-01-23T07:22:21.566Z,54.69
2023-01-23T07:24:47.989Z,54.66
2023-01-23T07:27:14.435Z,54.88
2023-01-23T07:29:40.772Z,54.79
2023-01-23T07:32:08.921Z,54.82
2023-01-23T07:34:37.470Z,54.87
2023-01-23T07:37:03.909Z,54.68
2023-01-23T07:39:30.757Z,54.76
2023-01-23T07:41:57.450Z,54.67
2023-01-23T07:44:23.913Z,54.85
2023-01-23T07:46:50.301Z,54.98
2023-01-23T07:49:17.072Z,54.67
2023-01-23T07:51:43.437Z,54.73
2023-01-23T07:54:10.076Z,54.83
2023-01-23T07:56:36.691Z,54.72
2023-01-23T07:59:03.373Z,54.71
2023-01-23T08:01:30.026Z,54.68
2023-01-23T08:03:56.577Z,54.74
2023-01-23T08:06:22.919Z,54.65
2023-01-23T08:08:49.606Z,54.69
2023-01-23T08:11:16.329Z,54.70
2023-01-23T08:13:42.943Z,54.85
2023-01-23T08:16:11.420Z,54.75
2023-01-23T08:18:39.180Z,54.79
2023-01-23T08:21:05.895Z,54.95
2023-01-23T08:23:32.245Z,54.95
2023-01-23T08:25:58.680Z,54.66
2023-01-23T08:28:25.590Z,54.59
2023-01-23T08:30:52.120Z,54.42
2023-01-23T08:33:18.610Z,54.47
2023-01-23T08:35:45.836Z,54.25
2023-01-23T08:38:12.415Z,54.28
2023-01-23T08:40:39.144Z,54.31
2023-01-23T08:43:05.918Z,54.15
2023-01-23T08:45:32.533Z,54.33
2023-01-23T08:47:59.306Z,54.12
2023-01-23T08:50:25.739Z,54.20
2023-01-23T08:52:52.568Z,54.12
2023-01-23T08:55:18.976Z,54.32
2023-01-23T08:57:45.481Z,54.36
2023-01-23T09:00:12.048Z,54.33
2023-01-23T09:02:38.429Z,54.40
2023-01-23T09:05:04.793Z,54.24
2023-01-23T09:07:31.707Z,54.25
2023-01-23T09:09:58.373Z,54.44
2023-01-23T09:12:24.986Z,54.40
2023-01-23T09:14:51.502Z,54.31
2023-01-23T09:17:18.142Z,54.52
2023-01-23T09:19:44.846Z,54.42
2023-01-23T09:22:11.411Z,54.29
2023-01-23T09:24:37.787Z,54.58
2023-01-23T09:27:04.489Z,54.29
2023-01-23T09:29:31.581Z,54.63
2023-01-23T09:31:58.339Z,54.48
2023-01-23T09:34:25.118Z,54.53
2023-01-23T09:36:51.761Z,54.44
2023-01-23T09:39:18.433Z,54.67
2023-01-23T09:41:45.341Z,54.80
2023-01-23T09:44:11.951Z,54.67
2023-01-23T09:46:39.332Z,54.78
2023-01-23T09:49:07.002Z,54.63
2023-01-23T09:51:33.410Z,54.83
2023-01-23T09:53:59.974Z,54.79
2023-01-23T09:56:26.384Z,54.81
2023-01-23T09:58:52.908Z,54.86
2023-01-23T10:01:19.694Z,55.08
2023-01-23T10:03:46.968Z,55.05
2023-01-23T10:06:13.586Z,55.03
2023-01-23T10:08:40.270Z,54.81
2023-01-23T10:11:06.990Z,54.95
2023-01-23T10:13:33.474Z,54.89
2023-01-23T10:16:02.216Z,54.92
2023-01-23T10:18:29.004Z,55.15
2023-01-23T10:20:55.762Z,55.04
2023-01-23T10:23:22.153Z,55.02
2023-01-23T10:25:48.600Z,55.24
2023-01-23T10:28:15.183Z,55.49
2023-01-23T10:30:42.030Z,55.47
2023-01-23T10:33:08.671Z,55.50
2023-01-23T10:35:35.251Z,55.80
2023-01-23T10:38:01.688Z,55.63
2023-01-23T10:40:28.638Z,55.54
2023-01-23T10:42:55.490Z,55.56
2023-01-23T10:45:22.115Z,55.50
2023-01-23T10:47:54.693Z,55.88
2023-01-23T10:50:21.797Z,55.86
2023-01-23T10:52:48.251Z,55.77
2023-01-23T10:55:14.965Z,55.76
2023-01-23T10:57:43.853Z,55.54
2023-01-23T11:00:10.557Z,55.95
2023-01-23T11:02:37.431Z,55.93
2023-01-23T11:05:03.909Z,56.06
2023-01-23T11:07:30.349Z,55.93
2023-01-23T11:09:56.888Z,56.23
2023-01-23T11:12:23.670Z,56.02
2023-01-23T11:14:50.102Z,55.97
2023-01-23T11:17:16.706Z,56.03
2023-01-23T11:19:43.844Z,55.92
2023-01-23T11:22:10.717Z,55.87
2023-01-23T11:24:40.774Z,55.88
2023-01-23T11:27:12.244Z,55.76
2023-01-23T11:29:38.851Z,55.83
2023-01-23T11:32:05.433Z,55.81
2023-01-23T11:34:32.271Z,55.90
2023-01-23T11:36:58.603Z,55.87
2023-01-23T11:39:25.595Z,56.02
2023-01-23T11:41:52.580Z,55.83
2023-01-23T11:44:19.320Z,55.65
2023-01-23T11:46:46.751Z,55.88
2023-01-23T11:49:13.182Z,55.95
2023-01-23T11:51:39.655Z,55.83
2023-01-23T11:54:06.179Z,55.95
2023-01-23T11:56:32.599Z,55.88
2023-01-23T11:58:59.169Z,55.89
2023-01-23T12:01:25.711Z,56.07
2023-01-23T12:03:52.252Z,55.89
2023-01-23T12:09:05.311Z,55.91
2023-01-23T12:11:31.707Z,56.13
2023-01-23T12:13:58.371Z,56.13
2023-01-23T12:16:24.882Z,56.15
2023-01-23T12:18:51.416Z,56.10
2023-01-23T12:21:17.967Z,56.14
2023-01-23T12:23:44.569Z,56.11
2023-01-23T12:26:11.271Z,56.23
2023-01-23T12:28:37.841Z,56.17
2023-01-23T12:31:05.682Z,56.14
2023-01-23T12:33:32.363Z,56.00
2023-01-23T12:35:59.097Z,55.97
2023-01-23T12:38:25.658Z,56.18
2023-01-23T12:40:52.102Z,56.31
2023-01-23T12:43:18.772Z,56.11
2023-01-23T12:45:45.218Z,56.28
2023-01-23T12:48:11.764Z,56.25
2023-01-23T12:50:38.460Z,56.27
2023-01-23T12:53:05.114Z,56.13
2023-01-23T12:55:31.860Z,56.18
2023-01-23T12:58:08.114Z,56.26
2023-01-23T13:00:35.330Z,56.19
2023-01-23T13:03:02.389Z,56.28
2023-01-23T13:05:28.999Z,56.37
2023-01-23T13:07:55.716Z,56.27
2023-01-23T13:10:22.798Z,56.13
2023-01-23T13:12:49.464Z,56.32
2023-01-23T13:15:17.225Z,56.30
2023-01-23T13:17:45.444Z,56.34
2023-01-23T13:20:11.969Z,56.34
2023-01-23T13:22:38.603Z,56.27
2023-01-23T13:25:05.605Z,56.12
2023-01-23T13:27:32.089Z,56.21
2023-01-23T13:29:58.517Z,56.17
2023-01-23T13:32:25.269Z,56.39
2023-01-23T13:34:51.785Z,56.40
2023-01-23T13:37:18.306Z,56.23
2023-01-23T13:39:45.543Z,56.14
2023-01-23T13:42:12.118Z,56.28
2023-01-23T13:44:42.059Z,55.90
2023-01-23T14:21:57.708Z,55.70
2023-01-23T14:24:24.530Z,55.78
2023-01-23T14:26:51.104Z,55.66
2023-01-23T14:29:17.799Z,55.66
2023-01-23T14:31:44.801Z,55.71
2023-01-23T14:34:13.281Z,55.69
2023-01-23T14:36:43.182Z,55.58
2023-01-23T14:39:09.658Z,55.73
2023-01-23T14:41:38.228Z,55.71
2023-01-23T14:44:07.664Z,55.72
2023-01-23T14:46:34.115Z,55.91
2023-01-23T14:49:00.761Z,55.66
2023-01-23T14:51:27.181Z,55.64
2023-01-23T14:53:53.729Z,55.76
2023-01-23T14:56:20.142Z,55.79
2023-01-23T14:58:46.986Z,55.99
2023-01-23T15:01:13.668Z,55.82
2023-01-23T15:03:40.048Z,56.01
2023-01-23T15:06:06.539Z,55.98
2023-01-23T15:08:33.259Z,55.92
2023-01-23T15:10:59.789Z,55.82
2023-01-23T15:13:26.136Z,56.05
2023-01-23T15:15:52.862Z,55.93
2023-01-23T15:18:19.383Z,55.90
2023-01-23T15:20:46.118Z,55.87
2023-01-23T15:23:12.570Z,55.89
2023-01-23T15:25:39.278Z,55.93
2023-01-23T15:28:05.639Z,55.64
2023-01-23T15:30:32.137Z,55.80
2023-01-23T15:32:58.534Z,56.01
2023-01-23T15:35:25.008Z,55.98
2023-01-23T15:37:51.446Z,55.79
2023-01-23T15:40:17.952Z,55.83
2023-01-23T15:42:44.446Z,55.83
2023-01-23T15:45:10.936Z,55.81
2023-01-23T15:47:37.345Z,55.90
2023-01-23T15:50:03.928Z,55.90
2023-01-23T15:52:30.513Z,56.00
2023-01-23T15:54:57.341Z,55.91
2023-01-23T15:57:24.075Z,55.98
2023-01-23T15:59:50.726Z,56.01
2023-01-23T16:02:29.610Z,55.86
2023-01-23T16:04:57.204Z,55.86
2023-01-23T16:07:23.575Z,55.63
2023-01-23T16:09:50.267Z,55.95
2023-01-23T16:12:16.665Z,56.02
2023-01-23T16:14:43.212Z,55.89
2023-01-23T16:17:16.766Z,55.92
2023-01-23T16:19:43.486Z,55.97
2023-01-23T16:22:09.943Z,55.95
2023-01-23T16:24:36.743Z,56.05
2023-01-23T16:27:03.282Z,55.92
2023-01-23T16:29:30.288Z,56.02
2023-01-23T16:31:56.939Z,55.88
2023-01-23T16:34:23.726Z,55.70
2023-01-23T16:36:50.152Z,56.02
2023-01-23T16:39:16.721Z,56.00
2023-01-23T16:41:43.424Z,55.99
2023-01-23T16:44:09.895Z,55.86
2023-01-23T16:46:36.537Z,55.93
2023-01-23T16:49:03.164Z,55.95
2023-01-23T16:51:29.531Z,55.83
2023-01-23T16:53:55.990Z,55.90
2023-01-23T16:56:22.761Z,55.89
2023-01-23T16:58:49.240Z,56.00
2023-01-23T17:01:16.093Z,56.06
2023-01-23T17:03:42.667Z,56.11
2023-01-23T17:06:09.776Z,55.83
2023-01-23T17:08:36.232Z,55.98
2023-01-23T17:11:02.983Z,55.99
2023-01-23T17:13:29.438Z,56.03
2023-01-23T17:15:56.199Z,55.91
2023-01-23T17:18:22.690Z,56.04
2023-01-23T17:20:49.103Z,55.95
2023-01-23T17:23:15.577Z,56.06
2023-01-23T17:25:54.462Z,55.97
2023-01-23T17:28:25.975Z,56.00
2023-01-23T17:30:52.484Z,56.04
2023-01-23T17:33:18.810Z,55.95
2023-01-23T17:35:45.558Z,56.02
2023-01-23T17:38:11.980Z,56.12
2023-01-23T17:40:38.426Z,56.04
2023-01-23T17:43:05.338Z,56.12
2023-01-23T17:45:32.313Z,56.13
2023-01-23T17:47:59.447Z,56.19
2023-01-23T17:50:26.092Z,56.05
2023-01-23T17:52:52.841Z,55.94
2023-01-23T17:55:19.297Z,56.08
2023-01-23T17:57:46.094Z,56.17
2023-01-23T18:00:12.574Z,56.04
2023-01-23T18:02:39.237Z,55.89
2023-01-23T18:05:06.184Z,56.15
2023-01-23T18:07:35.989Z,56.11
2023-01-23T18:10:06.628Z,56.13
2023-01-23T18:12:33.227Z,56.24
2023-01-23T18:15:00.062Z,56.15
2023-01-23T18:17:26.574Z,56.18
2023-01-23T18:19:53.261Z,56.20
2023-01-23T18:22:19.903Z,55.95
2023-01-23T18:24:46.591Z,56.21
2023-01-23T18:27:13.177Z,56.04
2023-01-23T18:29:39.506Z,56.04
2023-01-23T18:32:06.008Z,55.99
2023-01-23T18:34:32.478Z,56.15
2023-01-23T18:36:59.066Z,56.05
2023-01-23T18:39:25.735Z,56.19
2023-01-23T18:41:52.071Z,56.16
2023-01-23T18:44:18.573Z,56.16
2023-01-23T18:46:45.248Z,56.10
2023-01-23T18:49:14.958Z,56.28
2023-01-23T18:51:43.943Z,56.12
2023-01-23T18:54:10.540Z,56.09
2023-01-23T18:56:36.993Z,56.10
2023-01-23T18:59:11.524Z,56.25
2023-01-23T19:01:39.084Z,56.12
2023-01-23T19:04:05.536Z,56.21
2023-01-23T19:06:33.259Z,56.10
2023-01-23T19:08:59.910Z,56.26
2023-01-23T19:11:26.366Z,56.23
2023-01-23T19:13:53.033Z,56.11
2023-01-23T19:16:19.400Z,56.17
2023-01-23T19:18:46.137Z,56.02
2023-01-23T19:21:12.613Z,56.19
2023-01-23T19:23:39.535Z,56.16
2023-01-23T19:26:06.190Z,56.11
2023-01-23T19:28:32.791Z,56.23
2023-01-23T19:30:59.402Z,56.07
2023-01-23T19:33:26.326Z,56.36
2023-01-23T19:35:53.047Z,56.15
2023-01-23T19:38:20.342Z,56.39
2023-01-23T19:40:47.868Z,56.09
2023-01-23T19:43:15.188Z,56.04
2023-01-23T19:45:41.647Z,56.17
2023-01-23T19:48:08.342Z,56.17
2023-01-23T19:50:35.468Z,56.15
2023-01-23T19:53:02.311Z,56.16
2023-01-23T19:55:28.676Z,56.35
2023-01-23T19:57:55.853Z,56.23
2023-01-23T20:00:22.551Z,56.31
2023-01-23T20:02:49.486Z,56.22
2023-01-23T20:05:16.511Z,56.31
2023-01-23T20:07:43.144Z,56.19
2023-01-23T20:10:09.773Z,56.17
2023-01-23T20:12:36.426Z,56.25
2023-01-23T20:15:02.899Z,56.15
2023-01-23T20:17:29.561Z,56.31
2023-01-23T20:19:56.098Z,56.35
2023-01-23T20:22:22.667Z,56.28
2023-01-23T20:24:49.618Z,56.45
2023-01-23T20:27:16.122Z,56.11
2023-01-23T20:29:42.970Z,56.28
2023-01-23T20:32:09.993Z,56.15
2023-01-23T20:34:36.951Z,56.30
2023-01-23T20:37:03.391Z,56.05
2023-01-23T20:39:30.024Z,56.36
2023-01-23T20:41:56.535Z,56.26
2023-01-23T20:44:23.475Z,56.41
2023-01-23T20:46:49.979Z,56.29
2023-01-23T20:49:16.665Z,56.35
2023-01-23T20:51:43.566Z,56.18
2023-01-23T20:54:10.003Z,56.16
2023-01-23T20:56:36.534Z,56.39
2023-01-23T20:59:03.527Z,56.30
2023-01-23T21:01:30.463Z,56.37
2023-01-23T21:03:57.066Z,56.21
2023-01-23T21:06:23.560Z,56.43
2023-01-23T21:08:49.918Z,56.31
2023-01-23T21:11:16.973Z,56.51
2023-01-23T21:13:43.385Z,56.28
2023-01-23T21:16:10.189Z,56.38
2023-01-23T21:18:36.568Z,56.39
2023-01-23T21:21:03.591Z,56.22
2023-01-23T21:23:30.170Z,56.33
2023-01-23T21:25:56.680Z,56.44
2023-01-23T21:28:23.747Z,56.34
2023-01-23T21:30:50.269Z,56.34
2023-01-23T21:33:17.067Z,56.33
2023-01-23T21:35:43.533Z,56.34
2023-01-23T21:38:10.425Z,56.42
2023-01-23T21:40:36.956Z,56.35
2023-01-23T21:43:04.052Z,56.29
2023-01-23T21:45:31.101Z,56.29
2023-01-23T21:47:57.900Z,56.41
2023-01-23T21:50:24.982Z,56.28
2023-01-23T21:52:51.450Z,56.42
2023-01-23T21:55:17.870Z,56.41
2023-01-23T21:57:44.913Z,56.49
2023-01-23T22:00:13.728Z,56.46
2023-01-23T22:02:40.366Z,56.53
2023-01-23T22:05:07.615Z,56.28
2023-01-23T22:07:34.285Z,56.32
2023-01-23T22:10:00.988Z,56.34
2023-01-23T22:12:28.898Z,56.22
2023-01-23T22:14:55.450Z,56.31
2023-01-23T22:17:22.444Z,56.40
2023-01-23T22:19:48.785Z,56.28
2023-01-23T22:22:15.304Z,56.36
2023-01-23T22:24:42.189Z,56.34
2023-01-23T22:27:08.780Z,56.28
2023-01-23T22:29:36.069Z,56.44
2023-01-23T22:32:03.125Z,56.17
2023-01-23T22:34:30.266Z,56.27
2023-01-23T22:36:57.083Z,56.32
2023-01-23T22:39:23.521Z,56.48
2023-01-23T22:41:50.496Z,56.42
2023-01-23T22:44:16.934Z,56.38
2023-01-23T22:46:43.759Z,56.24
2023-01-23T22:49:10.189Z,56.35
2023-01-23T22:51:36.971Z,56.59
2023-01-23T22:54:03.423Z,56.23
2023-01-23T22:56:30.285Z,56.34
2023-01-23T22:58:57.148Z,56.35
2023-01-23T23:01:23.811Z,56.52
2023-01-23T23:03:50.999Z,56.27
2023-01-23T23:06:17.990Z,56.28
2023-01-23T23:08:47.371Z,56.31
2023-01-23T23:11:14.175Z,56.31
2023-01-23T23:13:40.747Z,56.41
2023-01-23T23:16:07.226Z,56.45
2023-01-23T23:18:33.985Z,56.23
2023-01-23T23:21:00.739Z,56.45
2023-01-23T23:23:27.243Z,56.40
2023-01-23T23:25:53.819Z,56.33
2023-01-23T23:28:20.400Z,56.45
2023-01-23T23:30:47.169Z,56.28
2023-01-23T23:33:13.980Z,56.47
2023-01-23T23:35:40.491Z,56.33
2023-01-23T23:38:07.159Z,56.27
2023-01-23T23:40:33.924Z,56.32
2023-01-23T23:43:00.296Z,56.58
2023-01-23T23:45:26.616Z,56.55
2023-01-23T23:47:52.947Z,56.64
2023-01-23T23:50:19.413Z,56.58
2023-01-23T23:52:46.581Z,56.42
2023-01-23T23:55:13.276Z,56.29
2023-01-23T23:57:40.206Z,56.42
